El Paso, TX (88535)

7:16 PM MST on December 21, 2014 (GMT -0700)
SAN CLEMENTE ESTATES | Change Station
CLOSE
Current Station
Personal Weather Station
Location: EL PASO, TX
Elevation: 4606 ft
Nearby Weather Stations

Elev 4606 ft 31.82 °N, 106.50 °W | Updated 11 seconds ago

Mostly Cloudy
Mostly Cloudy
53.2 °F
Feels Like 53.2 °F
N
2.0
Wind Variable Wind from NNW
Gusts 2.0 mph

Today
High -- | Low -- °F
--% Chance of Precip.
Yesterday
High -- | Low -- °F
Precip. -- in
7:01 AM 5:06 PM
New Moon, 0% visible
Pressure 29.83 in
Visibility 10.0 miles
Clouds Few 10000 ft
Scattered Clouds 14000 ft
Mostly Cloudy 24000 ft
Dew Point 28 °F
Humidity 37%
Rainfall 0.00 in
Snow Depth Not available.
UV 0 out of 12
Pollen 8.50 out of 12
Air Quality Not available.
Flu Activity Not available.
METAR KELP 220151Z 27022KT 10SM FEW100 SCT140 BKN240 15/M03 A2991 RMK AO2 PK WND 26038/0110 SLP101 T01501033 $

More Conditions Fewer Conditions

Pressure 29.83 in
Visibility 10.0 miles
Clouds Few 10000 ft
Scattered Clouds 14000 ft
Mostly Cloudy 24000 ft
Dew Point 28 °F
Humidity 37%
Rainfall 0.00 in
Snow Depth Not available.
UV 0 out of 12
Pollen 8.50 out of 12
Air Quality Not available.
Flu Activity Not available.
METAR KELP 220151Z 27022KT 10SM FEW100 SCT140 BKN240 15/M03 A2991 RMK AO2 PK WND 26038/0110 SLP101 T01501033 $

More Conditions Fewer Conditions

10-Day Weather Forecast

Almanac

Astronomy

Dec. 21, 2014 Rise Set
Actual Time
Civil Twilight
Nautical Twilight
Astronomical Twilight
Moon
Length of Visible Light
Length of Day
Tomorrow will be .
, % of the Moon is Illuminated

Today's Extremes

State Highs State Lows

Community

WunderPhotos

Upload Photos

1,779,524 photos uploaded!

WunderBlogs® & News

Nearby

Air Quality

  Air Quality AQ Index Pollutant
Not available.

Snow Depth

Station Depth Elevation

Earthquake Activity

City Distance Mag. Time & Date
Minimum magnitude displayed is 2.5.

Coastal Water Temperatures

Place Temperature

Nearby Weather Stations